Terminal Aerodrome Forecast
Issued by NWS

Home | Current Version | Previous Version | Text Only | Print | Product List | Glossary On
Versions: 1 2 3 4 5 6 7 8 9 10 11 12 13 14 15 16 17 18 19 20 21 22 23
522
FTUS42 KFFC 222337
TAFFTY
TAF
KFTY 222337Z 2300/2324 15005KT P6SM FEW045 SCT060
     FM230900 VRB03KT 5SM BR SCT015 SCT050
     FM231100 12006KT 4SM BR SCT005 BKN050
     FM231500 15008KT P6SM BKN020
     FM231800 17009KT P6SM BKN035 BKN100=

USA.gov is the U.S. government's official web portal to all federal, state and local government web resources and services.